createdAt,value
2023-04-23T00:00:14.412Z,13.50
2023-04-23T00:02:44.956Z,13.50
2023-04-23T00:05:13.129Z,13.50
2023-04-23T00:07:40.787Z,13.50
2023-04-23T00:10:09.099Z,13.40
2023-04-23T00:12:36.436Z,13.40
2023-04-23T00:15:04.698Z,13.40
2023-04-23T00:17:31.840Z,13.40
2023-04-23T00:19:58.799Z,13.40
2023-04-23T00:22:25.735Z,13.40
2023-04-23T00:24:52.637Z,13.40
2023-04-23T00:27:21.129Z,13.40
2023-04-23T00:29:51.372Z,13.40
2023-04-23T00:32:18.399Z,13.40
2023-04-23T00:34:48.734Z,13.40
2023-04-23T00:37:16.534Z,13.30
2023-04-23T00:39:43.967Z,13.30
2023-04-23T00:42:12.586Z,13.30
2023-04-23T00:44:42.097Z,13.30
2023-04-23T00:47:10.441Z,13.30
2023-04-23T00:49:39.328Z,13.30
2023-04-23T00:52:06.798Z,13.30
2023-04-23T00:54:34.214Z,13.30
2023-04-23T00:57:02.141Z,13.30
2023-04-23T00:59:30.699Z,13.30
2023-04-23T01:01:59.222Z,13.30
2023-04-23T01:04:30.782Z,13.30
2023-04-23T01:06:59.482Z,13.30
2023-04-23T01:09:32.480Z,13.30
2023-04-23T01:12:02.498Z,13.30
2023-04-23T01:14:29.413Z,13.30
2023-04-23T01:16:56.870Z,13.30
2023-04-23T01:19:23.819Z,13.30
2023-04-23T01:21:51.248Z,13.30
2023-04-23T01:24:18.164Z,13.30
2023-04-23T01:26:45.901Z,13.30
2023-04-23T01:29:14.052Z,13.30
2023-04-23T01:31:42.024Z,13.20
2023-04-23T01:34:11.027Z,13.20
2023-04-23T01:36:38.077Z,13.10
2023-04-23T01:39:05.721Z,13.10
2023-04-23T01:41:33.765Z,13.10
2023-04-23T01:44:01.332Z,13.10
2023-04-23T01:46:28.620Z,13.10
2023-04-23T01:48:56.335Z,13.10
2023-04-23T01:51:25.260Z,13.10
2023-04-23T01:53:52.197Z,13.10
2023-04-23T01:56:21.780Z,13.10
2023-04-23T01:58:48.653Z,13.10
2023-04-23T02:01:15.537Z,13.10
2023-04-23T02:03:42.672Z,13.20
2023-04-23T02:06:10.137Z,13.20
2023-04-23T02:08:37.517Z,13.20
2023-04-23T02:11:06.679Z,13.30
2023-04-23T02:13:33.532Z,13.30
2023-04-23T02:16:00.576Z,13.30
2023-04-23T02:18:27.666Z,13.30
2023-04-23T02:20:54.462Z,13.30
2023-04-23T02:23:21.299Z,13.30
2023-04-23T02:25:48.411Z,13.30
2023-04-23T02:28:15.218Z,13.30
2023-04-23T02:30:45.982Z,13.30
2023-04-23T02:33:13.028Z,13.30
2023-04-23T02:35:39.932Z,13.30
2023-04-23T02:38:06.760Z,13.20
2023-04-23T02:40:34.701Z,13.20
2023-04-23T02:43:01.538Z,13.10
2023-04-23T02:45:28.360Z,13.10
2023-04-23T02:47:55.505Z,13.10
2023-04-23T02:50:22.708Z,13.10
2023-04-23T02:52:49.898Z,13.10
2023-04-23T02:55:16.963Z,13.00
2023-04-23T02:57:45.430Z,13.00
2023-04-23T03:00:13.467Z,12.90
2023-04-23T03:02:42.608Z,12.90
2023-04-23T03:05:10.202Z,12.90
2023-04-23T03:07:37.006Z,12.90
2023-04-23T03:10:04.180Z,12.90
2023-04-23T03:12:31.182Z,13.00
2023-04-23T03:14:58.061Z,13.00
2023-04-23T03:17:26.795Z,13.00
2023-04-23T03:19:53.762Z,12.90
2023-04-23T03:22:21.403Z,12.90
2023-04-23T03:24:48.331Z,12.90
2023-04-23T03:27:15.351Z,13.00
2023-04-23T03:29:42.224Z,13.10
2023-04-23T03:32:09.205Z,13.20
2023-04-23T03:34:36.156Z,13.20
2023-04-23T03:37:02.971Z,13.20
2023-04-23T03:39:32.581Z,13.20
2023-04-23T03:41:59.392Z,13.20
2023-04-23T03:44:29.746Z,13.20
2023-04-23T03:46:56.656Z,13.10
2023-04-23T03:49:23.540Z,13.10
2023-04-23T03:51:50.550Z,13.10
2023-04-23T03:54:19.768Z,13.20
2023-04-23T03:57:03.631Z,13.20
2023-04-23T03:59:35.892Z,13.20
2023-04-23T04:02:04.432Z,13.20
2023-04-23T04:04:32.283Z,13.30
2023-04-23T04:07:02.604Z,13.40
2023-04-23T04:09:30.185Z,13.40
2023-04-23T04:12:01.683Z,13.30
2023-04-23T04:14:28.595Z,13.30
2023-04-23T04:16:55.616Z,13.30
2023-04-23T04:19:22.560Z,13.30
2023-04-23T04:21:49.588Z,13.30
2023-04-23T04:24:16.529Z,13.30
2023-04-23T04:26:44.281Z,13.30
2023-04-23T04:29:11.603Z,13.30
2023-04-23T04:31:38.669Z,13.30
2023-04-23T04:34:07.263Z,13.40
2023-04-23T04:36:35.633Z,13.40
2023-04-23T04:39:03.564Z,13.40
2023-04-23T04:41:30.408Z,13.40
2023-04-23T04:43:58.749Z,13.50
2023-04-23T04:46:29.409Z,13.50
2023-04-23T04:48:56.284Z,13.50
2023-04-23T04:51:23.273Z,13.60
2023-04-23T04:53:50.111Z,13.60
2023-04-23T04:56:16.948Z,13.60
2023-04-23T04:58:43.787Z,13.60
2023-04-23T05:01:10.933Z,13.50
2023-04-23T05:03:39.118Z,13.40
2023-04-23T05:06:06.384Z,13.40
2023-04-23T05:08:33.302Z,13.40
2023-04-23T05:11:01.766Z,13.30
2023-04-23T05:13:28.633Z,13.30
2023-04-23T05:15:55.544Z,13.30
2023-04-23T05:18:22.430Z,13.30
2023-04-23T05:20:49.356Z,13.40
2023-04-23T05:23:16.270Z,13.40
2023-04-23T05:25:43.082Z,13.40
2023-04-23T05:28:10.006Z,13.50
2023-04-23T05:30:36.901Z,13.60
2023-04-23T05:33:04.039Z,13.70
2023-04-23T05:35:32.020Z,13.80
2023-04-23T05:37:58.962Z,13.90
2023-04-23T05:40:26.187Z,14.00
2023-04-23T05:42:52.939Z,14.10
2023-04-23T05:45:19.900Z,14.30
2023-04-23T05:47:46.827Z,14.30
2023-04-23T05:50:13.786Z,14.40
2023-04-23T05:52:40.704Z,14.40
2023-04-23T05:55:09.742Z,14.60
2023-04-23T05:57:37.868Z,14.70
2023-04-23T06:00:11.854Z,14.90
2023-04-23T06:02:42.332Z,15.10
2023-04-23T06:05:09.990Z,15.40
2023-04-23T06:07:37.231Z,15.50
2023-04-23T06:10:05.614Z,15.70
2023-04-23T06:12:32.658Z,16.10
2023-04-23T06:14:59.501Z,16.70
2023-04-23T06:17:26.488Z,17.40
2023-04-23T06:19:53.390Z,18.10
2023-04-23T06:22:20.287Z,18.70
2023-04-23T06:24:47.085Z,19.00
2023-04-23T06:27:13.898Z,19.30
2023-04-23T06:29:45.244Z,19.70
2023-04-23T06:32:12.509Z,20.20
2023-04-23T06:34:46.744Z,20.60
2023-04-23T06:37:20.722Z,21.00
2023-04-23T06:39:47.638Z,21.50
2023-04-23T06:42:14.499Z,21.90
2023-04-23T06:45:06.415Z,22.20
2023-04-23T06:47:33.641Z,22.60
2023-04-23T06:50:00.576Z,22.90
2023-04-23T06:52:27.808Z,23.20
2023-04-23T06:54:54.580Z,23.30
2023-04-23T06:57:21.915Z,23.40
2023-04-23T06:59:48.928Z,23.60
2023-04-23T07:02:17.535Z,23.70
2023-04-23T07:04:44.662Z,23.80
2023-04-23T07:07:12.065Z,23.90
2023-04-23T07:09:39.355Z,24.10
2023-04-23T07:12:06.465Z,24.20
2023-04-23T07:14:33.560Z,24.30
2023-04-23T07:17:00.610Z,24.50
2023-04-23T07:19:27.598Z,24.60
2023-04-23T07:21:54.616Z,24.60
2023-04-23T07:24:21.438Z,24.80
2023-04-23T07:26:48.303Z,24.90
2023-04-23T07:29:15.509Z,25.00
2023-04-23T07:31:42.550Z,25.10
2023-04-23T07:34:09.962Z,25.10
2023-04-23T07:36:36.931Z,25.10
2023-04-23T07:39:05.298Z,25.20
2023-04-23T07:41:33.076Z,25.30
2023-04-23T07:44:00.326Z,25.40
2023-04-23T07:46:27.368Z,25.50
2023-04-23T07:48:54.320Z,25.60
2023-04-23T07:51:22.563Z,25.60
2023-04-23T07:53:51.276Z,25.70
2023-04-23T07:56:18.240Z,25.90
2023-04-23T07:58:45.017Z,26.00
2023-04-23T08:01:11.894Z,26.10
2023-04-23T08:03:39.033Z,26.10
2023-04-23T08:06:06.422Z,26.30
2023-04-23T08:08:33.396Z,26.40
2023-04-23T08:11:00.329Z,26.50
2023-04-23T08:13:27.359Z,26.60
2023-04-23T08:15:54.261Z,26.70
2023-04-23T08:18:21.164Z,26.80
2023-04-23T08:20:48.951Z,27.00
2023-04-23T08:23:15.780Z,27.10
2023-04-23T08:25:42.594Z,27.00
2023-04-23T08:28:09.387Z,27.10
2023-04-23T08:30:36.309Z,27.20
2023-04-23T08:33:03.525Z,27.30
2023-04-23T08:35:30.566Z,27.30
2023-04-23T08:37:57.991Z,27.50
2023-04-23T08:40:26.650Z,27.60
2023-04-23T08:43:06.672Z,27.80
2023-04-23T08:45:41.510Z,27.80
2023-04-23T08:48:10.430Z,27.90
2023-04-23T08:50:38.591Z,28.00
2023-04-23T08:53:07.044Z,28.00
2023-04-23T08:55:35.768Z,28.10
2023-04-23T08:58:06.294Z,28.00
2023-04-23T09:00:34.683Z,28.10
2023-04-23T09:03:02.298Z,28.10
2023-04-23T09:05:30.515Z,28.30
2023-04-23T09:07:59.925Z,28.40
2023-04-23T09:10:27.053Z,28.50
2023-04-23T09:12:54.012Z,28.60
2023-04-23T09:15:20.945Z,28.60
2023-04-23T09:17:49.992Z,28.60
2023-04-23T09:20:17.666Z,28.50
2023-04-23T09:22:55.324Z,28.40
2023-04-23T09:25:24.544Z,28.40
2023-04-23T09:27:52.772Z,28.40
2023-04-23T09:30:20.288Z,28.30
2023-04-23T09:32:47.896Z,28.20
2023-04-23T09:35:21.586Z,28.00
2023-04-23T09:37:50.477Z,27.90
2023-04-23T09:40:20.115Z,27.80
2023-04-23T09:42:54.266Z,27.80
2023-04-23T09:45:21.634Z,27.90
2023-04-23T09:47:56.769Z,27.90
2023-04-23T09:50:35.040Z,27.90
2023-04-23T09:53:01.966Z,27.80
2023-04-23T09:55:39.835Z,27.70
2023-04-23T09:58:11.646Z,27.70
2023-04-23T10:00:40.408Z,27.70
2023-04-23T10:03:08.883Z,27.70
2023-04-23T10:08:13.958Z,27.50
2023-04-23T10:10:55.110Z,27.50
2023-04-23T10:13:28.072Z,27.50
2023-04-23T10:15:59.037Z,27.60
2023-04-23T10:18:33.475Z,27.60
2023-04-23T10:21:02.613Z,27.50
2023-04-23T10:23:30.948Z,27.30
2023-04-23T10:25:59.492Z,27.20
2023-04-23T10:28:31.995Z,27.30
2023-04-23T10:31:00.038Z,27.20
2023-04-23T10:33:30.854Z,27.20
2023-04-23T10:36:00.805Z,27.20
2023-04-23T10:38:28.453Z,27.10
2023-04-23T10:40:58.877Z,26.90
2023-04-23T10:43:25.881Z,26.60
2023-04-23T10:45:53.854Z,26.40
2023-04-23T10:48:21.511Z,26.30
2023-04-23T10:51:09.689Z,26.20
2023-04-23T10:53:45.878Z,26.00
2023-04-23T10:56:12.794Z,25.80
2023-04-23T10:58:50.579Z,25.70
2023-04-23T11:01:18.804Z,25.80
2023-04-23T11:03:45.948Z,25.80
2023-04-23T11:06:19.293Z,25.80
2023-04-23T11:08:54.185Z,25.80
2023-04-23T11:11:39.970Z,25.80
2023-04-23T11:14:16.441Z,25.70
2023-04-23T11:16:43.766Z,25.60
2023-04-23T11:19:17.299Z,25.50
2023-04-23T11:22:01.783Z,25.30
2023-04-23T11:24:42.951Z,25.20
2023-04-23T11:27:14.316Z,25.10
2023-04-23T11:29:43.466Z,25.10
2023-04-23T11:32:13.429Z,25.10
2023-04-23T11:34:43.347Z,25.10
2023-04-23T11:37:12.462Z,25.10
2023-04-23T11:39:44.118Z,25.00
2023-04-23T11:42:11.906Z,24.90
2023-04-23T11:44:41.130Z,24.80
2023-04-23T11:47:13.478Z,24.70
2023-04-23T11:49:42.805Z,24.70
2023-04-23T11:52:11.169Z,24.50
2023-04-23T11:54:41.285Z,24.50
2023-04-23T11:57:08.549Z,24.40
2023-04-23T11:59:35.751Z,24.30
2023-04-23T12:02:02.794Z,24.00
2023-04-23T12:04:31.629Z,23.60
2023-04-23T12:06:59.299Z,23.40
2023-04-23T12:09:27.990Z,23.30
2023-04-23T12:11:56.847Z,23.30
2023-04-23T12:14:30.947Z,23.40
2023-04-23T12:16:59.059Z,23.50
2023-04-23T12:19:28.415Z,23.50
2023-04-23T12:21:57.203Z,23.50
2023-04-23T12:24:48.503Z,23.50
2023-04-23T12:27:16.835Z,23.60
2023-04-23T12:29:43.958Z,23.60
2023-04-23T12:32:11.828Z,23.60
2023-04-23T12:34:54.851Z,23.70
2023-04-23T12:37:26.900Z,23.60
2023-04-23T12:39:56.693Z,23.60
2023-04-23T12:42:24.228Z,23.70
2023-04-23T12:44:51.711Z,23.80
2023-04-23T12:47:19.763Z,23.80
2023-04-23T12:49:49.791Z,23.70
2023-04-23T12:52:16.654Z,23.50
2023-04-23T12:54:44.923Z,23.30
2023-04-23T12:57:14.479Z,22.90
2023-04-23T12:59:41.883Z,22.60
2023-04-23T13:02:09.745Z,22.40
2023-04-23T13:04:37.194Z,22.30
2023-04-23T13:07:04.947Z,22.10
2023-04-23T13:09:32.074Z,21.90
2023-04-23T13:12:00.194Z,21.80
2023-04-23T13:14:28.024Z,21.80
2023-04-23T13:16:55.286Z,21.70
2023-04-23T13:19:22.164Z,21.60
2023-04-23T13:21:48.979Z,21.60
2023-04-23T13:24:16.194Z,21.60
2023-04-23T13:26:42.993Z,21.70
2023-04-23T13:29:09.759Z,21.70
2023-04-23T13:31:36.675Z,21.80
2023-04-23T13:34:03.555Z,21.70
2023-04-23T13:36:30.653Z,21.70
2023-04-23T13:38:57.632Z,21.70
2023-04-23T13:41:24.419Z,21.80
2023-04-23T13:43:51.285Z,21.80
2023-04-23T13:46:19.783Z,21.80
2023-04-23T13:48:46.984Z,21.80
2023-04-23T13:51:32.594Z,21.80
2023-04-23T13:54:01.231Z,21.80
2023-04-23T13:56:30.037Z,21.80
2023-04-23T13:59:08.407Z,21.80
2023-04-23T14:01:47.218Z,21.80
2023-04-23T14:04:14.291Z,21.80
2023-04-23T14:06:41.156Z,21.80
2023-04-23T14:09:08.072Z,21.70
2023-04-23T14:11:35.047Z,21.70
2023-04-23T14:14:01.909Z,21.50
2023-04-23T14:16:28.783Z,21.30
2023-04-23T14:18:55.703Z,21.20
2023-04-23T14:21:22.840Z,21.20
2023-04-23T14:23:55.663Z,21.30
2023-04-23T14:26:47.342Z,21.30
2023-04-23T14:29:40.788Z,21.30
2023-04-23T14:32:08.168Z,21.30
2023-04-23T14:34:35.958Z,21.20
2023-04-23T14:37:03.791Z,21.20
2023-04-23T14:39:30.880Z,21.10
2023-04-23T14:41:57.828Z,21.00
2023-04-23T14:44:26.693Z,20.90
2023-04-23T14:46:53.587Z,20.80
2023-04-23T14:49:23.262Z,20.70
2023-04-23T14:51:54.180Z,20.50
2023-04-23T14:54:22.132Z,20.30
2023-04-23T14:56:49.155Z,20.20
2023-04-23T14:59:16.234Z,20.00
2023-04-23T15:01:43.612Z,19.90
2023-04-23T15:04:11.517Z,19.80
2023-04-23T15:06:40.484Z,19.70
2023-04-23T15:09:07.547Z,19.60
2023-04-23T15:11:34.760Z,19.50
2023-04-23T15:14:08.903Z,19.40
2023-04-23T15:19:07.101Z,19.20
2023-04-23T15:21:34.238Z,19.00
2023-04-23T15:24:01.021Z,19.00
2023-04-23T15:26:28.100Z,18.90
2023-04-23T15:28:55.401Z,18.90
2023-04-23T15:31:22.366Z,18.90
2023-04-23T15:33:49.392Z,18.80
2023-04-23T15:36:16.268Z,18.80
2023-04-23T15:38:43.136Z,18.80
2023-04-23T15:41:11.555Z,18.70
2023-04-23T15:43:38.547Z,18.70
2023-04-23T15:46:05.690Z,18.60
2023-04-23T15:48:32.801Z,18.60
2023-04-23T15:50:59.755Z,18.50
2023-04-23T15:53:28.330Z,18.40
2023-04-23T15:55:55.204Z,18.30
2023-04-23T15:58:22.152Z,18.20
2023-04-23T16:00:49.094Z,18.00
2023-04-23T16:03:16.199Z,17.90
2023-04-23T16:05:43.396Z,17.90
2023-04-23T16:08:10.628Z,17.80
2023-04-23T16:10:40.534Z,17.70
2023-04-23T16:13:07.463Z,17.60
2023-04-23T16:15:34.866Z,17.50
2023-04-23T16:18:01.723Z,17.40
2023-04-23T16:20:28.786Z,17.30
2023-04-23T16:22:55.782Z,17.20
2023-04-23T16:25:22.820Z,17.20
2023-04-23T16:27:49.871Z,17.10
2023-04-23T16:30:16.935Z,17.10
2023-04-23T16:32:44.003Z,17.00
2023-04-23T16:35:11.177Z,17.10
2023-04-23T16:37:38.260Z,17.00
2023-04-23T16:40:06.063Z,17.10
2023-04-23T16:42:33.233Z,17.00
2023-04-23T16:45:00.059Z,17.10
2023-04-23T16:47:26.986Z,17.10
2023-04-23T16:49:53.905Z,17.10
2023-04-23T16:52:20.784Z,17.10
2023-04-23T16:54:49.525Z,17.10
2023-04-23T16:57:17.796Z,17.10
2023-04-23T16:59:44.690Z,17.10
2023-04-23T17:02:11.918Z,17.10
2023-04-23T17:04:39.323Z,17.00
2023-04-23T17:07:06.635Z,17.00
2023-04-23T17:09:33.372Z,17.00
2023-04-23T17:12:00.200Z,17.00
2023-04-23T17:14:27.145Z,16.90
2023-04-23T17:16:54.001Z,16.80
2023-04-23T17:19:20.935Z,16.80
2023-04-23T17:21:47.827Z,16.80
2023-04-23T17:24:15.010Z,16.80
2023-04-23T17:26:41.832Z,16.80
2023-04-23T17:29:08.924Z,16.70
2023-04-23T17:31:37.706Z,16.70
2023-04-23T17:34:05.532Z,16.70
2023-04-23T17:36:32.950Z,16.70
2023-04-23T17:38:59.887Z,16.70
2023-04-23T17:41:26.819Z,16.70
2023-04-23T17:43:53.750Z,16.70
2023-04-23T17:46:21.510Z,16.70
2023-04-23T17:48:48.542Z,16.60
2023-04-23T17:51:15.710Z,16.60
2023-04-23T17:53:42.684Z,16.50
2023-04-23T17:56:10.336Z,16.40
2023-04-23T17:58:38.313Z,16.30
2023-04-23T18:01:07.283Z,16.30
2023-04-23T18:03:34.190Z,16.30
2023-04-23T18:06:01.413Z,16.20
2023-04-23T18:08:28.394Z,16.10
2023-04-23T18:10:55.469Z,16.10
2023-04-23T18:13:22.268Z,16.00
2023-04-23T18:15:50.047Z,16.00
2023-04-23T18:18:18.240Z,16.00
2023-04-23T18:20:46.296Z,15.90
2023-04-23T18:23:14.320Z,15.90
2023-04-23T18:25:42.031Z,15.90
2023-04-23T18:28:09.339Z,15.90
2023-04-23T18:30:38.120Z,15.90
2023-04-23T18:33:11.257Z,15.90
2023-04-23T18:35:42.924Z,15.90
2023-04-23T18:38:44.957Z,15.90
2023-04-23T18:41:11.792Z,15.90
2023-04-23T18:43:38.846Z,15.80
2023-04-23T18:46:06.133Z,15.80
2023-04-23T18:48:33.106Z,15.80
2023-04-23T18:51:30.058Z,15.80
2023-04-23T18:53:59.331Z,15.80
2023-04-23T18:56:26.310Z,15.80
2023-04-23T18:58:53.155Z,15.80
2023-04-23T19:01:20.931Z,15.80
2023-04-23T19:03:48.151Z,15.80
2023-04-23T19:06:15.904Z,15.80
2023-04-23T19:08:42.791Z,15.80
2023-04-23T19:11:09.687Z,15.80
2023-04-23T19:13:36.631Z,15.90
2023-04-23T19:16:03.658Z,15.80
2023-04-23T19:18:30.732Z,15.80
2023-04-23T19:20:58.333Z,15.80
2023-04-23T19:23:25.082Z,15.80
2023-04-23T19:25:51.879Z,15.80
2023-04-23T19:28:18.938Z,15.70
2023-04-23T19:30:46.132Z,15.70
2023-04-23T19:33:12.993Z,15.70
2023-04-23T19:35:40.497Z,15.70
2023-04-23T19:38:07.719Z,15.70
2023-04-23T19:40:34.757Z,15.80
2023-04-23T19:43:01.873Z,15.80
2023-04-23T19:45:30.075Z,15.80
2023-04-23T19:47:57.501Z,15.80
2023-04-23T19:50:25.583Z,15.80
2023-04-23T19:52:53.337Z,15.80
2023-04-23T19:55:22.415Z,15.80
2023-04-23T19:57:49.321Z,15.80
2023-04-23T20:00:16.640Z,15.80
2023-04-23T20:02:43.648Z,15.80
2023-04-23T20:05:11.207Z,15.80
2023-04-23T20:07:39.150Z,15.70
2023-04-23T20:10:07.022Z,15.70
2023-04-23T20:12:34.878Z,15.70
2023-04-23T20:15:02.218Z,15.80
2023-04-23T20:17:30.058Z,15.90
2023-04-23T20:20:01.859Z,15.90
2023-04-23T20:22:30.056Z,16.00
2023-04-23T20:24:57.943Z,16.10
2023-04-23T20:27:26.381Z,16.20
2023-04-23T20:29:53.388Z,16.20
2023-04-23T20:32:20.434Z,16.30
2023-04-23T20:34:47.371Z,16.30
2023-04-23T20:37:14.219Z,16.40
2023-04-23T20:39:41.931Z,16.30
2023-04-23T20:42:09.128Z,16.40
2023-04-23T20:44:36.421Z,16.40
2023-04-23T20:47:04.731Z,16.30
2023-04-23T20:49:32.591Z,16.20
2023-04-23T20:51:59.916Z,16.10
2023-04-23T20:54:26.900Z,16.10
2023-04-23T20:56:54.381Z,16.10
2023-04-23T20:59:21.864Z,16.10
2023-04-23T21:01:49.944Z,16.10
2023-04-23T21:04:17.219Z,16.10
2023-04-23T21:06:44.252Z,16.10
2023-04-23T21:09:11.286Z,16.10
2023-04-23T21:11:38.309Z,16.10
2023-04-23T21:14:08.858Z,16.00
2023-04-23T21:16:36.905Z,16.00
2023-04-23T21:19:05.016Z,16.00
2023-04-23T21:21:32.557Z,16.00
2023-04-23T21:24:00.695Z,16.00
2023-04-23T21:26:30.001Z,16.00
2023-04-23T21:28:57.079Z,16.00
2023-04-23T21:31:46.270Z,16.00
2023-04-23T21:34:14.716Z,16.00
2023-04-23T21:36:41.716Z,16.00
2023-04-23T21:39:09.541Z,15.90
2023-04-23T21:41:38.565Z,15.90
2023-04-23T21:44:05.622Z,15.80
2023-04-23T21:46:32.669Z,15.80
2023-04-23T21:48:59.606Z,15.80
2023-04-23T21:51:26.423Z,15.70
2023-04-23T21:53:53.317Z,15.70
2023-04-23T21:56:21.302Z,15.70
2023-04-23T21:58:48.166Z,15.80
2023-04-23T22:01:14.997Z,15.80
2023-04-23T22:03:47.133Z,15.90
2023-04-23T22:06:18.776Z,15.90
2023-04-23T22:08:47.160Z,15.90
2023-04-23T22:11:14.825Z,15.90
2023-04-23T22:13:41.733Z,15.90
2023-04-23T22:16:24.488Z,15.80
2023-04-23T22:18:55.651Z,15.70
2023-04-23T22:21:22.688Z,15.60
2023-04-23T22:23:49.560Z,15.50
2023-04-23T22:26:16.618Z,15.50
2023-04-23T22:28:44.111Z,15.40
2023-04-23T22:31:11.139Z,15.30
2023-04-23T22:33:38.020Z,15.20
2023-04-23T22:36:05.419Z,15.20
2023-04-23T22:38:32.523Z,15.10
2023-04-23T22:40:59.837Z,15.10
2023-04-23T22:43:26.607Z,15.00
2023-04-23T22:45:53.535Z,14.90
2023-04-23T22:48:21.220Z,14.90
2023-04-23T22:50:50.923Z,14.90
2023-04-23T22:53:19.587Z,14.80
2023-04-23T22:55:47.277Z,14.80
2023-04-23T22:58:14.515Z,14.80
2023-04-23T23:00:41.582Z,14.80
2023-04-23T23:03:08.758Z,14.70
2023-04-23T23:05:35.767Z,14.70
2023-04-23T23:08:02.881Z,14.70
2023-04-23T23:10:30.056Z,14.60
2023-04-23T23:12:56.971Z,14.60
2023-04-23T23:15:23.732Z,14.60
2023-04-23T23:17:51.111Z,14.60
2023-04-23T23:20:18.287Z,14.50
2023-04-23T23:22:45.249Z,14.50
2023-04-23T23:25:12.347Z,14.50
2023-04-23T23:27:39.163Z,14.50
2023-04-23T23:30:07.928Z,14.40
2023-04-23T23:32:35.325Z,14.40
2023-04-23T23:35:03.018Z,14.40
2023-04-23T23:37:29.788Z,14.40
2023-04-23T23:39:56.566Z,14.40
2023-04-23T23:42:23.475Z,14.40
2023-04-23T23:44:50.470Z,14.40
2023-04-23T23:47:17.342Z,14.40
2023-04-23T23:49:44.305Z,14.40
2023-04-23T23:52:11.322Z,14.40
2023-04-23T23:54:38.164Z,14.40
2023-04-23T23:57:05.270Z,14.40
2023-04-23T23:59:32.125Z,14.40
